Time;durP1;ratioP1;P1;durP2;ratioP2;P2;SDS_P1;SDS_P2;PMS_P1;PMS_P2;Temp;Humidity;BMP_temperature;BMP_pressure;BME280_temperature;BME280_humidity;BME280_pressure;Samples;Min_cycle;Max_cycle;Signal;HPM_P1;HPM_P2
2022/04/26 03:37:51;;;;;;;18.23;8.63;;;6.70;99.90;;;;;;4273333;27;20030;-54
2022/04/26 03:39:52;;;;;;;15.80;7.20;;;6.70;99.90;;;;;;4274962;27;20914;-56
2022/04/26 03:41:54;;;;;;;19.53;6.90;;;6.80;99.90;;;;;;4275739;27;20066;-55
2022/04/26 03:43:55;;;;;;;11.00;5.97;;;6.80;99.90;;;;;;4275817;27;20071;-58
2022/04/26 03:45:57;;;;;;;13.90;5.57;;;6.90;99.90;;;;;;4274804;27;20122;-51
2022/04/26 03:47:59;;;;;;;15.37;5.60;;;7.00;99.90;;;;;;4275615;27;20038;-52
2022/04/26 03:50:00;;;;;;;8.50;5.80;;;7.10;99.90;;;;;;4257950;27;20043;-48
2022/04/26 03:52:02;;;;;;;13.77;6.17;;;7.10;99.90;;;;;;4259631;27;20035;-58
2022/04/26 03:54:03;;;;;;;12.73;5.00;;;7.10;99.90;;;;;;4258314;27;20031;-48
2022/04/26 03:56:04;;;;;;;10.90;5.57;;;7.20;99.90;;;;;;4267050;27;20435;-55
2022/04/26 03:58:05;;;;;;;14.57;5.80;;;7.10;99.90;;;;;;4274896;27;20451;-54
2022/04/26 04:00:07;;;;;;;13.57;6.07;;;7.10;99.90;;;;;;4275921;27;20034;-62
2022/04/26 04:02:08;;;;;;;9.03;4.50;;;7.00;99.90;;;;;;4273731;27;20586;-56
2022/04/26 04:04:09;;;;;;;11.00;5.13;;;7.00;99.90;;;;;;4275908;27;20087;-48
2022/04/26 04:06:10;;;;;;;21.57;8.93;;;7.00;99.90;;;;;;4274566;27;20502;-54
2022/04/26 04:08:12;;;;;;;18.53;9.43;;;7.00;99.90;;;;;;4275942;27;20746;-54
2022/04/26 04:10:13;;;;;;;16.70;6.53;;;7.00;99.90;;;;;;4274101;27;20494;-48
2022/04/26 04:12:14;;;;;;;8.40;4.97;;;7.00;99.90;;;;;;4276241;27;21121;-55
2022/04/26 04:14:15;;;;;;;7.93;4.87;;;7.00;99.90;;;;;;4273335;27;20019;-53
2022/04/26 04:16:17;;;;;;;8.80;4.33;;;7.10;99.90;;;;;;4274546;27;20447;-53
2022/04/26 04:20:37;;;;;;;8.40;4.10;;;7.30;99.90;;;;;;4275161;27;20034;-48
2022/04/26 04:22:39;;;;;;;6.77;4.17;;;7.40;99.90;;;;;;4274793;27;20029;-51
2022/04/26 04:24:40;;;;;;;6.13;4.40;;;7.60;99.90;;;;;;4274719;27;20026;-62
2022/04/26 04:26:42;;;;;;;7.43;4.20;;;7.70;99.90;;;;;;4276145;27;20030;-52
2022/04/26 04:28:43;;;;;;;6.13;4.20;;;7.80;99.90;;;;;;4274493;27;20164;-51
2022/04/26 04:30:44;;;;;;;10.23;8.23;;;7.90;99.90;;;;;;4272847;27;20042;-58
2022/04/26 04:32:46;;;;;;;26.77;23.03;;;8.00;99.90;;;;;;4274338;27;20054;-52
2022/04/26 04:34:47;;;;;;;30.87;25.10;;;8.10;99.90;;;;;;4274744;27;20515;-52
2022/04/26 04:36:48;;;;;;;22.30;18.80;;;8.20;99.90;;;;;;4274557;27;20082;-50
2022/04/26 04:38:49;;;;;;;13.93;10.57;;;8.20;99.90;;;;;;4274851;27;20034;-51
2022/04/26 04:40:50;;;;;;;13.43;9.13;;;8.20;99.90;;;;;;4271922;27;20042;-53
2022/04/26 04:42:52;;;;;;;12.33;8.37;;;8.10;99.90;;;;;;4275542;27;20949;-54
2022/04/26 04:44:53;;;;;;;9.53;6.73;;;8.10;99.90;;;;;;4273907;27;20403;-56
2022/04/26 04:46:59;;;;;;;8.63;6.20;;;8.10;99.90;;;;;;4271104;27;20102;-51
2022/04/26 04:49:00;;;;;;;11.87;4.67;;;8.10;99.90;;;;;;4257153;27;20062;-52
2022/04/26 04:51:02;;;;;;;9.80;5.33;;;8.20;99.90;;;;;;4257401;27;20039;-57
2022/04/26 04:53:03;;;;;;;9.10;4.30;;;8.20;99.90;;;;;;4257540;27;20022;-56
2022/04/26 04:55:05;;;;;;;9.17;4.87;;;8.30;99.90;;;;;;4257198;27;20158;-54
2022/04/26 04:57:06;;;;;;;7.03;3.50;;;8.40;99.90;;;;;;4257158;27;20031;-62
2022/04/26 04:59:07;;;;;;;7.80;2.83;;;8.40;99.90;;;;;;4256937;27;20091;-55
2022/04/26 05:01:08;;;;;;;6.30;2.27;;;8.40;99.90;;;;;;4274339;27;20038;-53
2022/04/26 05:03:09;;;;;;;7.70;3.17;;;8.40;99.90;;;;;;4273421;27;20042;-52
2022/04/26 05:05:10;;;;;;;9.97;3.10;;;8.40;99.90;;;;;;4274417;27;20454;-49
2022/04/26 05:07:12;;;;;;;4.17;2.57;;;8.40;99.90;;;;;;4273872;27;20083;-49
2022/04/26 05:09:13;;;;;;;6.93;3.10;;;8.50;99.90;;;;;;4275222;27;20038;-53
2022/04/26 05:11:14;;;;;;;9.23;3.37;;;8.50;99.90;;;;;;4274116;27;20086;-51
2022/04/26 05:13:15;;;;;;;14.27;4.87;;;8.60;99.90;;;;;;4275351;27;20427;-50
2022/04/26 05:15:16;;;;;;;5.27;2.80;;;8.60;99.90;;;;;;4259532;27;20042;-53
2022/04/26 05:17:18;;;;;;;10.27;2.93;;;8.70;99.90;;;;;;4257061;27;20035;-55
2022/04/26 05:19:19;;;;;;;10.63;3.90;;;8.80;99.90;;;;;;4256576;27;20800;-51
2022/04/26 05:21:20;;;;;;;13.37;4.10;;;8.90;99.90;;;;;;4257469;27;20022;-52
2022/04/26 05:25:41;;;;;;;8.70;3.57;;;9.20;99.90;;;;;;4260619;27;20035;-49
2022/04/26 05:27:42;;;;;;;4.60;2.50;;;9.40;99.90;;;;;;4257415;27;20079;-56
2022/04/26 05:29:43;;;;;;;4.13;2.60;;;9.50;99.90;;;;;;4256807;27;20039;-65
2022/04/26 05:31:44;;;;;;;6.37;2.90;;;9.60;99.90;;;;;;4257455;27;20030;-47
2022/04/26 05:33:45;;;;;;;10.40;3.87;;;9.80;99.90;;;;;;4256102;27;20078;-56
2022/04/26 05:35:48;;;;;;;6.80;3.60;;;10.10;99.90;;;;;;4257757;27;20032;-59
2022/04/26 05:37:49;;;;;;;4.67;3.20;;;10.80;99.90;;;;;;4256751;27;20028;-57
2022/04/26 05:39:50;;;;;;;8.80;4.00;;;11.30;99.90;;;;;;4255333;27;20528;-53
2022/04/26 05:41:51;;;;;;;8.23;3.53;;;12.00;99.90;;;;;;4239608;27;20035;-60
2022/04/26 05:43:52;;;;;;;6.80;3.07;;;12.70;99.90;;;;;;4271352;27;20034;-56
2022/04/26 05:45:53;;;;;;;10.50;4.37;;;13.60;99.90;;;;;;4266012;27;20546;-53
2022/04/26 05:47:54;;;;;;;11.63;4.63;;;14.40;99.90;;;;;;4259659;27;20088;-54
2022/04/26 05:49:56;;;;;;;5.93;3.23;;;15.10;99.90;;;;;;4263646;27;20046;-55
2022/04/26 05:51:57;;;;;;;10.00;3.33;;;15.90;99.90;;;;;;4273854;27;20042;-56
2022/04/26 05:53:59;;;;;;;10.80;2.93;;;16.50;99.90;;;;;;4273617;27;20471;-54
2022/04/26 05:56:00;;;;;;;27.33;7.03;;;16.70;99.90;;;;;;4254411;27;20043;-55
2022/04/26 05:58:02;;;;;;;14.77;4.33;;;16.20;99.90;;;;;;4273692;27;20431;-54
2022/04/26 06:00:08;;;;;;;7.50;3.23;;;16.10;99.90;;;;;;4273875;27;20565;-53
2022/04/26 06:02:09;;;;;;;6.37;3.17;;;15.80;99.90;;;;;;4273482;27;20503;-57
2022/04/26 06:04:10;;;;;;;229.43;51.03;;;15.40;99.90;;;;;;4276599;27;20563;-54
2022/04/26 06:06:12;;;;;;;193.23;46.10;;;15.30;99.90;;;;;;4276652;27;20030;-54
2022/04/26 06:08:13;;;;;;;203.50;48.10;;;15.20;99.90;;;;;;4276379;27;20035;-57
2022/04/26 06:10:14;;;;;;;92.47;24.13;;;15.60;99.90;;;;;;4277316;27;20088;-51
2022/04/26 06:12:16;;;;;;;48.03;13.40;;;16.20;99.90;;;;;;4267929;27;20480;-54
2022/04/26 06:14:17;;;;;;;51.90;14.80;;;16.80;99.90;;;;;;4260822;27;20031;-53
2022/04/26 06:16:19;;;;;;;27.90;11.33;;;17.10;99.90;;;;;;4263102;27;20039;-53
2022/04/26 06:18:20;;;;;;;9.73;5.10;;;17.30;99.90;;;;;;4272952;27;20042;-48
2022/04/26 06:20:23;;;;;;;27.17;9.75;;;17.50;99.90;;;;;;4271003;27;20843;-53
2022/04/26 06:22:24;;;;;;;192.02;55.40;;;17.70;99.90;;;;;;4266663;27;20102;-54
2022/04/26 06:24:25;;;;;;;87.85;27.25;;;18.10;99.90;;;;;;4265424;27;20158;-53
2022/04/26 06:26:26;;;;;;;82.95;25.13;;;17.90;99.90;;;;;;4258865;27;20055;-53
2022/04/26 06:28:28;;;;;;;132.25;41.20;;;17.90;99.90;;;;;;4259583;27;20047;-51
2022/04/26 06:30:29;;;;;;;73.95;21.95;;;18.00;99.90;;;;;;4259777;27;20027;-52
2022/04/26 06:32:30;;;;;;;63.60;20.98;;;18.20;99.90;;;;;;4259277;27;20087;-59
2022/04/26 06:34:31;;;;;;;8.48;3.45;;;18.20;99.90;;;;;;4259381;27;20083;-60
2022/04/26 06:36:33;;;;;;;10.60;5.90;;;18.00;99.90;;;;;;4241537;27;20039;-53
2022/04/26 06:38:34;;;;;;;7.50;2.22;;;18.00;99.90;;;;;;4259069;27;20034;-48
2022/04/26 06:40:35;;;;;;;7.10;1.70;;;17.60;99.90;;;;;;4259965;27;20364;-55
2022/04/26 06:42:36;;;;;;;4.05;2.50;;;17.70;99.90;;;;;;4257953;27;20510;-53
2022/04/26 06:44:37;;;;;;;7.43;3.20;;;17.50;99.90;;;;;;4259865;27;20027;-54
2022/04/26 06:46:39;;;;;;;7.07;2.60;;;17.10;99.90;;;;;;4258227;27;20131;-54
2022/04/26 06:48:41;;;;;;;7.88;3.67;;;16.70;99.90;;;;;;4259460;27;20042;-54
2022/04/26 06:50:43;;;;;;;8.30;3.90;;;16.70;99.90;;;;;;4240048;27;20514;-56
2022/04/26 06:52:44;;;;;;;7.93;4.20;;;16.40;99.90;;;;;;4260060;27;20079;-55
2022/04/26 06:54:45;;;;;;;11.43;4.47;;;16.00;99.90;;;;;;4258739;27;20715;-55
2022/04/26 06:56:47;;;;;;;9.38;5.15;;;15.80;99.90;;;;;;4259159;27;20103;-51
2022/04/26 06:58:48;;;;;;;4.57;3.30;;;15.90;99.90;;;;;;4259715;27;20091;-51
2022/04/26 07:00:49;;;;;;;8.45;3.13;;;15.90;99.90;;;;;;4276027;27;20042;-57
2022/04/26 07:02:50;;;;;;;3.75;2.70;;;15.50;99.90;;;;;;4276793;27;20090;-57
2022/04/26 07:04:52;;;;;;;5.03;2.65;;;15.20;99.90;;;;;;4275909;27;20063;-54
2022/04/26 07:06:53;;;;;;;5.25;3.05;;;15.10;99.90;;;;;;4261239;27;20478;-60
2022/04/26 07:08:54;;;;;;;4.53;3.13;;;15.20;99.90;;;;;;4258147;27;20046;-52
2022/04/26 07:10:55;;;;;;;5.40;4.00;;;15.30;99.90;;;;;;4259570;27;20042;-54
2022/04/26 07:12:56;;;;;;;6.10;4.15;;;15.30;99.90;;;;;;4257521;27;20035;-56
2022/04/26 07:14:57;;;;;;;7.00;3.35;;;15.10;99.90;;;;;;4259370;27;20023;-54
2022/04/26 07:17:00;;;;;;;2.75;1.70;;;15.20;99.90;;;;;;4258473;27;20111;-57
2022/04/26 07:19:01;;;;;;;4.65;2.15;;;15.30;99.90;;;;;;4259850;27;20904;-53
2022/04/26 07:21:02;;;;;;;2.47;2.15;;;15.40;99.90;;;;;;4257497;27;20075;-58
2022/04/26 07:23:03;;;;;;;2.33;1.97;;;15.30;99.90;;;;;;4259809;27;20448;-55
2022/04/26 07:25:06;;;;;;;2.93;2.00;;;15.20;99.90;;;;;;4274630;27;20038;-59
2022/04/26 07:27:07;;;;;;;4.97;2.20;;;15.00;99.90;;;;;;4275759;27;20079;-53
2022/04/26 07:29:08;;;;;;;3.70;1.57;;;14.80;99.90;;;;;;4274914;27;20046;-57
2022/04/26 07:31:10;;;;;;;2.30;1.70;;;14.70;99.90;;;;;;4275168;27;20090;-60
2022/04/26 07:35:30;;;;;;;4.45;1.90;;;14.60;99.90;;;;;;4276418;27;20026;-56
2022/04/26 07:37:32;;;;;;;4.70;2.17;;;14.50;99.90;;;;;;4275806;27;20074;-60
2022/04/26 07:39:34;;;;;;;4.07;2.10;;;14.50;99.90;;;;;;4274400;27;20082;-55
2022/04/26 07:41:35;;;;;;;4.20;1.70;;;14.60;99.90;;;;;;4274962;27;20038;-56
2022/04/26 07:43:36;;;;;;;2.70;1.73;;;14.50;99.90;;;;;;4265431;27;20057;-55
2022/04/26 07:45:39;;;;;;;5.80;2.60;;;14.40;99.90;;;;;;4258583;27;20047;-59
2022/04/26 07:47:40;;;;;;;5.63;2.33;;;14.40;99.90;;;;;;4257859;27;20440;-56
2022/04/26 07:49:41;;;;;;;6.23;2.30;;;14.50;99.90;;;;;;4258574;27;20043;-59
2022/04/26 07:51:43;;;;;;;6.47;2.30;;;14.70;99.90;;;;;;4258243;27;20095;-61
2022/04/26 07:53:45;;;;;;;2.70;2.23;;;15.10;99.90;;;;;;4273422;27;20558;-54
2022/04/26 07:55:47;;;;;;;5.50;2.03;;;15.30;99.90;;;;;;4274249;27;20086;-64
2022/04/26 07:57:48;;;;;;;4.13;2.20;;;15.30;99.90;;;;;;4275747;27;20374;-62
2022/04/26 07:59:49;;;;;;;6.03;1.93;;;15.50;99.90;;;;;;4274553;27;20030;-56
2022/04/26 08:01:50;;;;;;;2.60;2.27;;;15.60;99.90;;;;;;4275206;27;20046;-56
2022/04/26 08:03:52;;;;;;;3.00;2.27;;;15.70;99.90;;;;;;4275847;27;20019;-57
2022/04/26 08:05:53;;;;;;;2.60;2.10;;;15.70;99.90;;;;;;4274708;27;20034;-59
2022/04/26 08:07:54;;;;;;;2.77;2.10;;;15.70;99.90;;;;;;4265913;27;20059;-59
2022/04/26 08:09:56;;;;;;;7.27;2.53;;;15.80;99.90;;;;;;4257429;27;20027;-58
2022/04/26 08:11:57;;;;;;;9.57;2.30;;;15.90;99.90;;;;;;4258294;27;20480;-58
2022/04/26 08:13:59;;;;;;;5.65;2.28;;;16.10;99.90;;;;;;4251726;27;20570;-59
2022/04/26 08:16:00;;;;;;;3.75;2.17;;;16.30;99.90;;;;;;4263142;27;20046;-62
2022/04/26 08:18:01;;;;;;;2.97;2.33;;;16.40;99.90;;;;;;4255986;27;20043;-52
2022/04/26 08:20:06;;;;;;;5.32;2.20;;;16.40;99.90;;;;;;4266759;27;20098;-61
2022/04/26 08:22:07;;;;;;;6.95;3.08;;;16.50;99.90;;;;;;4246601;27;20080;-60
2022/04/26 08:28:47;;;;;;;1.73;1.63;;;16.50;99.90;;;;;;4260525;27;20035;-57
2022/04/26 08:30:48;;;;;;;2.88;2.13;;;16.40;99.90;;;;;;4271706;27;20106;-58
2022/04/26 08:32:50;;;;;;;3.17;2.30;;;16.50;99.90;;;;;;4274841;27;20034;-62
2022/04/26 08:34:51;;;;;;;2.50;2.20;;;16.50;99.90;;;;;;4275506;27;20103;-65
2022/04/26 08:36:52;;;;;;;7.97;2.42;;;16.40;99.90;;;;;;4275902;27;20103;-61
2022/04/26 08:38:53;;;;;;;3.03;2.60;;;16.40;99.90;;;;;;4256699;27;20064;-62
2022/04/26 08:40:54;;;;;;;2.47;2.13;;;16.50;99.90;;;;;;4257777;27;20039;-59
2022/04/26 08:42:59;;;;;;;3.35;2.20;;;16.70;99.90;;;;;;4256114;27;20031;-57
2022/04/26 08:45:00;;;;;;;2.92;2.38;;;16.40;99.90;;;;;;4256447;27;20039;-56
2022/04/26 08:51:44;;;;;;;5.80;3.17;;;16.10;99.90;;;;;;4256487;27;20039;-51
2022/04/26 08:53:46;;;;;;;2.63;2.42;;;16.00;99.90;;;;;;4257470;27;20091;-55
2022/04/26 08:55:53;;;;;;;2.97;2.60;;;16.00;99.90;;;;;;4256805;27;20014;-54
2022/04/26 08:57:54;;;;;;;3.40;2.00;;;16.10;99.90;;;;;;4259782;27;20048;-52
2022/04/26 08:59:55;;;;;;;3.88;2.35;;;16.20;99.90;;;;;;4272788;27;20593;-53
2022/04/26 09:02:22;;;;;;;3.90;2.38;;;16.50;99.90;;;;;;4273326;27;20035;-62
2022/04/26 09:04:23;;;;;;;3.28;2.92;;;16.50;99.90;;;;;;4256384;27;20542;-49
2022/04/26 09:06:35;;;;;;;4.10;2.47;;;16.60;99.90;;;;;;4256955;27;20103;-57
2022/04/26 09:08:36;;;;;;;10.68;3.90;;;16.40;99.90;;;;;;4256000;27;20068;-53
2022/04/26 09:10:46;;;;;;;3.03;2.10;;;16.50;99.90;;;;;;4257249;27;20027;-64
2022/04/26 09:13:14;;;;;;;3.50;2.77;;;16.30;99.90;;;;;;4265354;27;20092;-58
2022/04/26 09:15:17;;;;;;;2.65;2.38;;;16.40;99.90;;;;;;4267530;27;20038;-59
2022/04/26 09:17:20;;;;;;;4.05;2.40;;;16.60;99.90;;;;;;4256852;27;20030;-54
2022/04/26 09:19:21;;;;;;;3.10;1.75;;;16.90;99.90;;;;;;4256670;27;20539;-64
2022/04/26 09:21:26;;;;;;;2.20;1.95;;;17.10;99.90;;;;;;4247545;27;20050;-63
2022/04/26 09:23:30;;;;;;;6.05;2.28;;;17.10;99.90;;;;;;4245472;27;20043;-53
2022/04/26 09:25:31;;;;;;;2.72;2.03;;;16.90;99.90;;;;;;4253934;27;20042;-62
2022/04/26 09:27:38;;;;;;;4.10;1.90;;;17.00;99.90;;;;;;4255960;27;20135;-59
2022/04/26 09:29:46;;;;;;;3.30;2.08;;;17.10;99.90;;;;;;4261863;27;20080;-60
2022/04/26 09:32:02;;;;;;;3.95;1.85;;;17.10;99.90;;;;;;4267179;27;20031;-54
2022/04/26 09:34:11;;;;;;;3.58;2.13;;;17.30;99.90;;;;;;4257429;27;20087;-58
2022/04/26 09:36:14;;;;;;;2.67;1.88;;;17.50;99.90;;;;;;4255345;27;20038;-62
2022/04/26 09:38:23;;;;;;;2.03;1.67;;;17.70;99.90;;;;;;4238149;27;20053;-63
2022/04/26 09:40:32;;;;;;;4.50;2.67;;;17.80;99.90;;;;;;4268380;27;20038;-60
2022/04/26 09:42:35;;;;;;;2.70;1.65;;;17.80;99.90;;;;;;4272876;27;20046;-60
2022/04/26 09:44:40;;;;;;;4.82;1.70;;;17.80;99.90;;;;;;4272213;27;20427;-62
2022/04/26 09:46:48;;;;;;;2.90;1.88;;;17.70;99.90;;;;;;4251820;27;20084;-52
2022/04/26 09:48:51;;;;;;;3.92;1.80;;;17.70;99.90;;;;;;4256278;27;20362;-55
2022/04/26 09:50:52;;;;;;;2.55;1.75;;;17.70;99.90;;;;;;4256726;27;20088;-53
2022/04/26 09:52:55;;;;;;;4.95;2.10;;;17.80;99.90;;;;;;4256065;27;20091;-53
2022/04/26 09:54:57;;;;;;;2.55;1.80;;;17.70;99.90;;;;;;4257079;27;20083;-54
2022/04/26 09:56:59;;;;;;;2.22;1.92;;;17.80;99.90;;;;;;4255751;27;20550;-61
2022/04/26 09:59:03;;;;;;;6.18;2.00;;;17.80;99.90;;;;;;4257438;27;20035;-51
2022/04/26 10:01:04;;;;;;;2.55;1.63;;;18.00;99.90;;;;;;4255694;27;20072;-51
2022/04/26 10:03:09;;;;;;;2.20;2.00;;;18.20;99.60;;;;;;4257589;27;20935;-65
2022/04/26 10:05:13;;;;;;;2.58;2.38;;;18.30;99.00;;;;;;4256402;27;20079;-54
2022/04/26 10:07:19;;;;;;;7.45;1.92;;;18.40;99.10;;;;;;4256699;27;20035;-53
2022/04/26 10:09:21;;;;;;;3.75;2.22;;;18.30;99.00;;;;;;4255647;27;20092;-68
2022/04/26 10:11:24;;;;;;;5.13;1.80;;;18.30;99.00;;;;;;4256081;27;20042;-56
2022/04/26 10:13:32;;;;;;;3.17;1.98;;;18.10;99.00;;;;;;4256192;27;20047;-55
2022/04/26 10:15:34;;;;;;;2.65;1.83;;;18.10;99.00;;;;;;4256200;27;20099;-56
2022/04/26 10:17:35;;;;;;;7.43;1.83;;;18.20;98.80;;;;;;4256254;27;20099;-56
2022/04/26 10:19:44;;;;;;;5.85;2.67;;;18.10;98.60;;;;;;4255311;27;20091;-55
2022/04/26 10:21:47;;;;;;;3.65;2.00;;;18.00;98.30;;;;;;4256280;27;20455;-57
2022/04/26 10:23:50;;;;;;;2.10;1.70;;;18.10;98.70;;;;;;4255414;27;20083;-54
2022/04/26 10:26:22;;;;;;;3.28;1.83;;;18.40;98.60;;;;;;4256984;27;20483;-57
2022/04/26 10:28:23;;;;;;;2.30;1.98;;;18.40;98.70;;;;;;4249927;27;20051;-56
2022/04/26 10:31:10;;;;;;;2.10;1.50;;;18.20;98.30;;;;;;4256395;27;20095;-54
2022/04/26 10:33:34;;;;;;;4.80;2.28;;;17.90;98.60;;;;;;4201895;28;20032;-67
2022/04/26 10:35:36;;;;;;;1.60;1.33;;;17.60;99.50;;;;;;4203294;28;20032;-49
2022/04/26 10:37:38;;;;;;;2.55;1.90;;;17.40;99.50;;;;;;4213637;27;20815;-63
2022/04/26 10:39:48;;;;;;;2.53;1.70;;;17.40;99.90;;;;;;4256228;27;20022;-54
2022/04/26 10:41:50;;;;;;;3.45;2.13;;;17.30;99.90;;;;;;4255389;27;20046;-58
2022/04/26 10:44:13;;;;;;;6.03;1.50;;;17.40;99.70;;;;;;4255753;27;20087;-55
2022/04/26 10:46:17;;;;;;;4.55;1.95;;;17.40;99.00;;;;;;4256908;27;20091;-66
2022/04/26 10:48:25;;;;;;;2.33;1.58;;;17.40;99.40;;;;;;4255254;27;20046;-51
2022/04/26 10:50:32;;;;;;;3.63;1.48;;;17.40;99.30;;;;;;4259135;27;20455;-54
2022/04/26 10:52:36;;;;;;;1.70;1.58;;;17.60;99.30;;;;;;4259251;27;20075;-57
2022/04/26 10:54:55;;;;;;;2.50;1.70;;;17.80;99.20;;;;;;4259315;27;20439;-58
2022/04/26 10:56:56;;;;;;;3.05;1.55;;;18.00;98.40;;;;;;4259089;27;20054;-51
2022/04/26 10:58:58;;;;;;;2.88;1.30;;;18.00;98.70;;;;;;4259866;27;20831;-65
2022/04/26 11:00:59;;;;;;;3.22;1.60;;;18.00;98.60;;;;;;4258737;27;20118;-55
2022/04/26 11:03:03;;;;;;;3.25;1.58;;;18.00;98.50;;;;;;4258907;27;20027;-52
2022/04/26 11:05:11;;;;;;;2.28;1.50;;;18.10;98.30;;;;;;4260084;27;20115;-57
2022/04/26 11:07:18;;;;;;;2.00;1.40;;;18.20;97.90;;;;;;4258918;27;20031;-61
2022/04/26 11:09:19;;;;;;;2.80;1.27;;;18.20;98.00;;;;;;4259423;27;20162;-56
2022/04/26 11:11:20;;;;;;;3.08;1.77;;;18.40;98.20;;;;;;4257791;27;20451;-52
2022/04/26 11:13:31;;;;;;;3.33;1.67;;;18.60;97.60;;;;;;4259254;27;20034;-55
2022/04/26 11:15:32;;;;;;;4.13;1.65;;;18.80;97.30;;;;;;4257993;27;20042;-57
2022/04/26 11:17:34;;;;;;;2.28;1.35;;;18.90;96.70;;;;;;4259763;27;20035;-54
2022/04/26 11:19:36;;;;;;;3.67;1.35;;;18.70;96.20;;;;;;4258446;27;20413;-52
2022/04/26 11:21:38;;;;;;;2.42;2.17;;;18.50;95.70;;;;;;4259841;27;20050;-64
2022/04/26 11:28:27;;;;;;;4.25;1.50;;;19.00;96.10;;;;;;4257892;27;20104;-52
2022/04/26 11:30:45;;;;;;;4.60;1.65;;;19.00;95.80;;;;;;4258010;27;20042;-54
2022/04/26 11:32:48;;;;;;;3.90;1.60;;;18.90;94.60;;;;;;4257994;27;20030;-50
2022/04/26 11:34:49;;;;;;;2.63;1.30;;;18.80;95.10;;;;;;4259603;27;20506;-61
2022/04/26 11:36:53;;;;;;;1.73;0.70;;;18.80;95.50;;;;;;4257320;27;20043;-52
2022/04/26 11:38:57;;;;;;;1.88;1.00;;;19.00;95.20;;;;;;4259537;27;20058;-54
2022/04/26 11:41:01;;;;;;;2.22;1.00;;;19.00;94.60;;;;;;4257228;27;20087;-51
2022/04/26 11:43:08;;;;;;;2.85;0.80;;;19.10;94.10;;;;;;4240543;27;20031;-58
2022/04/26 11:45:09;;;;;;;1.50;1.08;;;19.10;93.50;;;;;;4257473;27;20034;-57
2022/04/26 11:47:13;;;;;;;4.22;1.00;;;19.00;94.00;;;;;;4240778;27;20047;-56
2022/04/26 11:49:14;;;;;;;3.08;0.70;;;19.00;93.90;;;;;;4257977;27;20067;-57
2022/04/26 11:51:15;;;;;;;0.70;0.68;;;18.70;93.50;;;;;;4240740;27;21122;-57
2022/04/26 11:53:19;;;;;;;4.75;1.00;;;18.70;93.60;;;;;;4257815;27;20653;-60
2022/04/26 11:55:32;;;;;;;0.70;0.60;;;18.80;93.60;;;;;;4258785;27;20035;-57
2022/04/26 11:57:33;;;;;;;2.65;1.20;;;18.90;93.30;;;;;;4257880;27;20405;-51
2022/04/26 11:59:35;;;;;;;1.10;0.85;;;18.90;93.50;;;;;;4258405;27;20107;-54
2022/04/26 12:01:36;;;;;;;1.08;1.00;;;19.00;93.50;;;;;;4257724;27;20405;-61
2022/04/26 12:03:49;;;;;;;2.90;1.02;;;19.20;93.50;;;;;;4258329;27;20022;-55
2022/04/26 12:05:58;;;;;;;1.83;0.70;;;19.30;93.30;;;;;;4258906;27;20023;-57
2022/04/26 12:07:59;;;;;;;1.10;1.00;;;19.40;93.10;;;;;;4257900;27;20473;-63
2022/04/26 12:10:01;;;;;;;2.00;1.00;;;19.30;93.00;;;;;;4258160;27;20840;-56
2022/04/26 12:12:04;;;;;;;1.63;0.93;;;19.30;93.00;;;;;;4257305;27;20031;-52
2022/04/26 12:14:16;;;;;;;1.20;0.82;;;19.30;92.90;;;;;;4259113;27;20083;-51
2022/04/26 12:16:20;;;;;;;1.83;0.85;;;19.30;92.80;;;;;;4257490;27;20035;-53
2022/04/26 12:18:21;;;;;;;1.98;1.05;;;19.40;93.00;;;;;;4258626;27;20149;-53
2022/04/26 12:20:22;;;;;;;2.95;0.70;;;19.30;92.80;;;;;;4239077;27;20042;-62
2022/04/26 12:22:26;;;;;;;2.08;1.20;;;19.30;93.10;;;;;;4257844;27;20110;-55
2022/04/26 12:24:31;;;;;;;2.67;1.10;;;19.30;93.00;;;;;;4256854;27;20739;-56
2022/04/26 12:26:32;;;;;;;2.20;0.60;;;19.30;92.40;;;;;;4257997;27;20103;-55
2022/04/26 12:28:48;;;;;;;1.92;1.02;;;19.20;92.30;;;;;;4257023;27;20449;-50
2022/04/26 12:30:50;;;;;;;1.77;0.90;;;19.30;91.90;;;;;;4257910;27;20079;-59
2022/04/26 12:32:51;;;;;;;2.67;0.63;;;19.30;91.70;;;;;;4256509;27;20035;-54
2022/04/26 12:34:58;;;;;;;2.10;0.50;;;19.30;91.60;;;;;;4240104;27;20042;-54
2022/04/26 12:37:20;;;;;;;1.65;0.50;;;19.20;91.10;;;;;;4256762;27;20034;-56
2022/04/26 12:39:23;;;;;;;3.47;0.70;;;18.90;90.30;;;;;;4257767;27;20095;-55
2022/04/26 12:41:24;;;;;;;3.45;0.60;;;18.90;91.40;;;;;;4256646;27;20091;-52
2022/04/26 12:43:28;;;;;;;1.02;0.50;;;18.80;91.40;;;;;;4258134;27;20498;-55
2022/04/26 12:45:29;;;;;;;0.55;0.45;;;18.70;91.70;;;;;;4256747;27;20099;-49
2022/04/26 12:52:33;;;;;;;0.88;0.47;;;18.60;92.10;;;;;;4258469;27;20103;-51
2022/04/26 12:54:34;;;;;;;0.82;0.35;;;18.80;91.60;;;;;;4257037;27;20533;-53
2022/04/26 12:56:36;;;;;;;3.58;0.85;;;18.80;92.00;;;;;;4258154;27;20034;-58
2022/04/26 12:58:39;;;;;;;1.17;0.70;;;18.80;91.90;;;;;;4256749;27;20030;-57
2022/04/26 13:00:43;;;;;;;1.17;0.68;;;18.80;91.90;;;;;;4258048;27;20737;-62
2022/04/26 13:02:45;;;;;;;1.58;1.00;;;18.90;91.90;;;;;;4256758;27;20030;-51
2022/04/26 13:04:46;;;;;;;0.93;0.70;;;18.90;91.80;;;;;;4258513;27;20067;-56
2022/04/26 13:06:48;;;;;;;1.33;0.60;;;18.90;91.50;;;;;;4256244;27;20527;-56
2022/04/26 13:08:51;;;;;;;0.60;0.60;;;19.10;91.40;;;;;;4257219;27;20115;-55
2022/04/26 13:10:53;;;;;;;1.92;1.00;;;19.10;91.00;;;;;;4256184;27;20131;-55
2022/04/26 13:12:54;;;;;;;1.13;0.50;;;19.00;91.20;;;;;;4256425;27;20087;-57
2022/04/26 13:14:55;;;;;;;0.60;0.38;;;18.90;91.00;;;;;;4257173;27;20027;-53
2022/04/26 13:16:56;;;;;;;1.23;0.45;;;19.00;90.90;;;;;;4255870;27;21002;-53
2022/04/26 13:18:58;;;;;;;1.55;0.40;;;19.00;90.80;;;;;;4257567;27;20084;-54
2022/04/26 13:21:01;;;;;;;2.65;0.60;;;19.00;90.40;;;;;;4254951;27;20092;-55
2022/04/26 13:23:02;;;;;;;0.93;0.40;;;19.00;90.40;;;;;;4257237;27;20035;-57
2022/04/26 13:25:05;;;;;;;3.60;0.50;;;19.00;90.30;;;;;;4256676;27;20027;-55
2022/04/26 13:27:06;;;;;;;0.60;0.50;;;19.00;89.60;;;;;;4256558;27;20150;-53
2022/04/26 13:29:08;;;;;;;0.60;0.38;;;19.00;89.30;;;;;;4237518;27;20839;-56
2022/04/26 13:31:09;;;;;;;0.55;0.30;;;19.10;89.10;;;;;;4256825;27;20042;-58
2022/04/26 13:33:10;;;;;;;1.02;0.40;;;19.10;89.00;;;;;;4255690;27;20846;-51
2022/04/26 13:35:12;;;;;;;2.80;0.63;;;19.10;89.10;;;;;;4257327;27;20063;-55
2022/04/26 13:37:13;;;;;;;1.15;0.47;;;19.10;89.30;;;;;;4255415;27;20080;-57
2022/04/26 13:39:14;;;;;;;2.53;0.60;;;19.00;88.80;;;;;;4257242;27;20087;-59
2022/04/26 13:41:16;;;;;;;0.73;0.50;;;18.90;88.90;;;;;;4256218;27;20473;-57
2022/04/26 13:43:18;;;;;;;2.88;0.40;;;18.90;89.00;;;;;;4256740;27;20068;-60
2022/04/26 13:45:20;;;;;;;1.08;0.47;;;18.90;89.10;;;;;;4256682;27;20031;-57
2022/04/26 13:47:22;;;;;;;1.45;0.60;;;18.90;89.20;;;;;;4255473;27;20055;-56
2022/04/26 13:49:23;;;;;;;0.57;0.57;;;19.00;89.30;;;;;;4256715;27;20916;-58
2022/04/26 13:51:29;;;;;;;1.45;0.40;;;19.10;89.50;;;;;;4255461;27;20027;-56
2022/04/26 13:53:30;;;;;;;1.90;0.90;;;19.20;89.60;;;;;;4256840;27;20482;-55
2022/04/26 13:55:32;;;;;;;0.57;0.50;;;19.30;89.50;;;;;;4256004;27;20129;-66
2022/04/26 13:57:33;;;;;;;1.45;0.50;;;19.40;89.10;;;;;;4256628;27;20035;-54
2022/04/26 13:59:35;;;;;;;0.80;0.60;;;19.40;89.20;;;;;;4255206;27;20100;-63
2022/04/26 14:01:36;;;;;;;0.80;0.70;;;19.40;89.20;;;;;;4256652;27;20043;-54
2022/04/26 14:03:37;;;;;;;0.60;0.30;;;19.60;88.70;;;;;;4256310;27;20046;-55
2022/04/26 14:05:38;;;;;;;2.15;0.30;;;19.70;87.70;;;;;;4256843;27;20042;-57
2022/04/26 14:07:40;;;;;;;0.45;0.40;;;19.60;87.10;;;;;;4255840;27;20052;-51
2022/04/26 14:09:42;;;;;;;1.17;0.40;;;19.50;86.90;;;;;;4257521;27;20035;-68
2022/04/26 14:11:45;;;;;;;2.75;0.90;;;19.40;86.90;;;;;;4255784;27;20087;-60
2022/04/26 14:23:17;;;;;;;2.20;0.40;;;19.20;84.60;;;;;;4258176;27;20095;-54
2022/04/26 14:25:19;;;;;;;2.75;0.55;;;19.10;83.10;;;;;;4258901;27;20258;-61
2022/04/26 14:27:21;;;;;;;1.38;0.70;;;19.00;82.80;;;;;;4260294;27;20486;-63
2022/04/26 14:29:22;;;;;;;1.70;0.85;;;18.90;84.00;;;;;;4257626;27;20027;-57
2022/04/26 14:31:24;;;;;;;1.80;0.98;;;18.70;86.70;;;;;;4258224;27;20068;-53
2022/04/26 14:33:25;;;;;;;0.65;0.65;;;18.70;88.30;;;;;;4257132;27;20038;-51
2022/04/26 14:35:29;;;;;;;2.97;0.85;;;18.60;88.20;;;;;;4258505;27;20046;-55
2022/04/26 14:37:33;;;;;;;0.93;0.50;;;18.60;88.00;;;;;;4259174;27;20039;-57
2022/04/26 14:39:36;;;;;;;0.52;0.50;;;18.60;87.60;;;;;;4259519;27;20090;-53
2022/04/26 14:41:37;;;;;;;1.45;0.55;;;18.60;87.70;;;;;;4260132;27;20034;-58
2022/04/26 14:43:39;;;;;;;1.90;1.08;;;18.60;87.20;;;;;;4259129;27;20046;-56
2022/04/26 14:45:47;;;;;;;2.88;0.60;;;18.60;87.00;;;;;;4259543;27;20630;-57
2022/04/26 14:47:48;;;;;;;3.25;0.82;;;18.60;86.80;;;;;;4258666;27;20122;-59
2022/04/26 14:49:49;;;;;;;1.77;1.08;;;18.70;86.50;;;;;;4259456;27;20741;-57
2022/04/26 14:51:51;;;;;;;0.90;0.80;;;18.80;85.70;;;;;;4258489;27;20487;-58